FranceFixed distance
Luchon Aneto Trail - L'Ultra Lat
8 Jul2018
Distance
85km
Finishers
9084 men6 women
Winning time
10:20:53h
Median pace
5.34km/h
Pace distribution
90 finishers · 4.32–8.21 km/h · mean 5.56
Every finisher ran the same 85 km course, so these paces are directly comparable.
Histogram of finisher pace. 90 finishers ranged from 4.32 to 8.21 kilometres per hour, with a mean of 5.56 and a median of 5.34. The busiest band is 5.0 to 5.5 kilometres per hour, with 29 finishers.
Results
Ranks 51–90 of 90
| Rank | Runner | Time | Pace | Cat. | Placing |
|---|---|---|---|---|---|
| 51 | Les Baladins De Jardre... | 16:08:09h | 5.27 | M40 | 47th M · 13th M40 |
| 51 | Team Globetrailers | 16:08:09h | 5.27 | M40 | 47th M · 13th M40 |
| 53 | *Mont De Marsan | 16:18:45h | 5.21 | M35 | 49th M · 14th M35 |
| 54 | *Gourdon | 16:20:55h | 5.20 | M45 | 50th M · 7th M45 |
| 55 | Association Sportive P... | 16:27:57h | 5.16 | M40 | 51st M · 15th M40 |
| 56 | *L'Union | 16:31:21h | 5.14 | M45 | 52nd M · 8th M45 |
| 57 | *Colomiers | 16:34:27h | 5.13 | M40 | 53rd M · 16th M40 |
| 58 | *St Palais | 16:35:00h | 5.13 | M50 | 54th M · 2nd M50 |
| 59 | *Le Brouilh Monbert | 16:39:30h | 5.10 | M23 | 55th M · 14th M23 |
| 60 | *Bordeaux | 16:44:04h | 5.08 | M23 | 56th M · 15th M23 |
| 61 | Air Cube Bordeaux | 16:44:05h | 5.08 | M40 | 57th M · 17th M40 |
| 62 | *Eindhoven | 16:49:49h | 5.05 | M35 | 58th M · 15th M35 |
| 63 | *Labastide D Anjou | 16:51:14h | 5.04 | M55 | 59th M · 2nd M55 |
| 64 | *Herm | 16:51:56h | 5.04 | M35 | 60th M · 16th M35 |
| 65 | Stade Bagnerais Athle | 16:58:36h | 5.01 | M60 | 61st M · 1st M60 |
| 66 | Triswimtrail | 16:59:03h | 5.00 | M35 | 62nd M · 17th M35 |
| 67 | Easysport Galopins Bra... | 17:05:31h | 4.97 | M35 | 63rd M · 18th M35 |
| 68 | Easysport | 17:05:33h | 4.97 | M35 | 64th M · 19th M35 |
| 69 | *Fumel | 17:10:49h | 4.95 | M50 | 65th M · 3rd M50 |
| 70 | Les Zinzins Des Coteau... | 17:15:58h | 4.92 | M40 | 66th M · 18th M40 |
| 71 | *Leguevin | 17:19:33h | 4.91 | M40 | 67th M · 19th M40 |
| 71 | *Bordeaux | 17:19:33h | 4.91 | M45 | 67th M · 9th M45 |
| 73 | Orthez | 17:20:36h | 4.90 | M55 | 69th M · 3rd M55 |
| 74 | CGF Mulhouse | 17:38:10h | 4.82 | M45 | 70th M · 10th M45 |
| 75 | *Bignan | 17:38:13h | 4.82 | M45 | 71st M · 11th M45 |
| 76 | Saint Nazaire Olympiqu... | 17:48:16h | 4.77 | M45 | 72nd M · 12th M45 |
| 77 | Saint Nazaire Olympiqu... | 17:48:18h | 4.77 | M45 | 73rd M · 13th M45 |
| 78 | *Saint Priest Taurion | 17:51:52h | 4.76 | M23 | 74th M · 16th M23 |
| 78 | Tocats Del Cim | 17:51:52h | 4.76 | M35 | 74th M · 20th M35 |
| 80 | Association Sportive P... | 18:09:07h | 4.68 | M50 | 76th M · 4th M50 |
| 81 | Bougez Contre la SLA | 18:09:39h | 4.68 | M45 | 77th M · 14th M45 |
| 82 | Running Val D'Hyrôme | 18:36:10h | 4.57 | M40 | 78th M · 20th M40 |
| 83 | *La Rochelle | 18:37:37h | 4.56 | M50 | 79th M · 5th M50 |
| 84 | ACP Agde - Team Never ... | 19:10:40h | 4.43 | M35 | 80th M · 21st M35 |
| 85 | *Ixelles | 19:10:42h | 4.43 | W45 | 5th F · 1st W45 |
| 86 | Tracks Athlé L'Isle Jo... | 19:13:15h | 4.42 | W45 | 6th F · 2nd W45 |
| 87 | Baudet du Poitou | 19:13:57h | 4.42 | M35 | 81st M · 22nd M35 |
| 88 | *31770 - Colomiers | 19:24:31h | 4.38 | M23 | 82nd M · 17th M23 |
| 89 | Asptt Tours | 19:25:07h | 4.38 | M50 | 83rd M · 6th M50 |
| 90 | Absu | 19:39:40h | 4.32 | M23 | 84th M · 18th M23 |
- 51Les Baladins De Jardre...47th M · 13th M40Time16:08:09hPace5.27Cat.M40
- 51Team Globetrailers47th M · 13th M40Time16:08:09hPace5.27Cat.M40
- 53*Mont De Marsan49th M · 14th M35Time16:18:45hPace5.21Cat.M35
- 54*Gourdon50th M · 7th M45Time16:20:55hPace5.20Cat.M45
- 55Association Sportive P...51st M · 15th M40Time16:27:57hPace5.16Cat.M40
- 56*L'Union52nd M · 8th M45Time16:31:21hPace5.14Cat.M45
- 57*Colomiers53rd M · 16th M40Time16:34:27hPace5.13Cat.M40
- 58*St Palais54th M · 2nd M50Time16:35:00hPace5.13Cat.M50
- 59*Le Brouilh Monbert55th M · 14th M23Time16:39:30hPace5.10Cat.M23
- 60*Bordeaux56th M · 15th M23Time16:44:04hPace5.08Cat.M23
- 61Air Cube Bordeaux57th M · 17th M40Time16:44:05hPace5.08Cat.M40
- 62*Eindhoven58th M · 15th M35Time16:49:49hPace5.05Cat.M35
- 63*Labastide D Anjou59th M · 2nd M55Time16:51:14hPace5.04Cat.M55
- 64*Herm60th M · 16th M35Time16:51:56hPace5.04Cat.M35
- 65Stade Bagnerais Athle61st M · 1st M60Time16:58:36hPace5.01Cat.M60
- 66Triswimtrail62nd M · 17th M35Time16:59:03hPace5.00Cat.M35
- 67Easysport Galopins Bra...63rd M · 18th M35Time17:05:31hPace4.97Cat.M35
- 68Easysport64th M · 19th M35Time17:05:33hPace4.97Cat.M35
- 69*Fumel65th M · 3rd M50Time17:10:49hPace4.95Cat.M50
- 70Les Zinzins Des Coteau...66th M · 18th M40Time17:15:58hPace4.92Cat.M40
- 71*Leguevin67th M · 19th M40Time17:19:33hPace4.91Cat.M40
- 71*Bordeaux67th M · 9th M45Time17:19:33hPace4.91Cat.M45
- 73Orthez69th M · 3rd M55Time17:20:36hPace4.90Cat.M55
- 74CGF Mulhouse70th M · 10th M45Time17:38:10hPace4.82Cat.M45
- 75*Bignan71st M · 11th M45Time17:38:13hPace4.82Cat.M45
- 76Saint Nazaire Olympiqu...72nd M · 12th M45Time17:48:16hPace4.77Cat.M45
- 77Saint Nazaire Olympiqu...73rd M · 13th M45Time17:48:18hPace4.77Cat.M45
- 78*Saint Priest Taurion74th M · 16th M23Time17:51:52hPace4.76Cat.M23
- 78Tocats Del Cim74th M · 20th M35Time17:51:52hPace4.76Cat.M35
- 80Association Sportive P...76th M · 4th M50Time18:09:07hPace4.68Cat.M50
- 81Bougez Contre la SLA77th M · 14th M45Time18:09:39hPace4.68Cat.M45
- 82Running Val D'Hyrôme78th M · 20th M40Time18:36:10hPace4.57Cat.M40
- 83*La Rochelle79th M · 5th M50Time18:37:37hPace4.56Cat.M50
- 84ACP Agde - Team Never ...80th M · 21st M35Time19:10:40hPace4.43Cat.M35
- 85*Ixelles5th F · 1st W45Time19:10:42hPace4.43Cat.W45
- 86Tracks Athlé L'Isle Jo...6th F · 2nd W45Time19:13:15hPace4.42Cat.W45
- 87Baudet du Poitou81st M · 22nd M35Time19:13:57hPace4.42Cat.M35
- 88*31770 - Colomiers82nd M · 17th M23Time19:24:31hPace4.38Cat.M23
- 89Asptt Tours83rd M · 6th M50Time19:25:07hPace4.38Cat.M50
- 90Absu84th M · 18th M23Time19:39:40hPace4.32Cat.M23
Showing ranks 51–90 of 90